ADDS METAR Data INFO
IDs: Format: Raw Decoded Include TAF

Data at: 2106 UTC 19 Jul 2018

KIER 192055Z AUTO 20007KT 10SM CLR 37/23 A2988 RMK AO2 T03700233
KIER 192035Z AUTO 18009KT 10SM CLR 37/23 A2988 RMK AO2 T03700234
KIER 192015Z AUTO 17008KT 10SM CLR 37/23 A2988 RMK AO2 T03680231
KIER 191955Z AUTO 17005KT 10SM CLR 37/23 A2989 RMK AO2 T03690234
KIER 191935Z AUTO 18009KT 10SM CLR 37/23 A2989 RMK AO2 T03700234
KIER 191915Z AUTO 20007KT 10SM CLR 37/24 A2990 RMK AO2 T03650236
KIER 191855Z AUTO 18009KT 10SM CLR 36/24 A2990 RMK AO2 T03600238
KIER 191835Z AUTO 20007KT 10SM CLR 36/23 A2991 RMK AO2 T03630234
KIER 191815Z AUTO 18009KT 10SM CLR 36/23 A2992 RMK AO2 T03550233
KIER 191755Z AUTO 20006KT 10SM CLR 35/24 A2992 RMK AO2 T03510236 10352 20250
KIER 191735Z AUTO 19006KT 10SM CLR 35/24 A2993 RMK AO2 T03490240
KIER 191715Z AUTO 15005KT 10SM CLR 34/24 A2993 RMK AO2 T03430243
KIER 191655Z AUTO 18005KT 10SM SCT036 34/25 A2994 RMK AO2 T03380251
KIER 191635Z AUTO 20005KT 10SM CLR 34/25 A2994 RMK AO2 T03350253
KIER 191615Z AUTO 14003KT 10SM CLR 33/25 A2995 RMK AO2 T03310252
KIER 191555Z AUTO 00000KT 10SM CLR 33/25 A2995 RMK AO2 T03290247
KIER 191535Z AUTO 24003KT 10SM CLR 32/25 A2995 RMK AO2 T03190247
KIER 191515Z AUTO 00000KT 10SM CLR 31/25 A2995 RMK AO2 T03120248
KIER 191455Z AUTO 00000KT 10SM CLR 31/25 A2996 RMK AO2 T03060245
KIER 191435Z AUTO 23003KT 10SM CLR 30/24 A2996 RMK AO2 T03000244
KIER 191415Z AUTO 00000KT 10SM CLR 30/25 A2997 RMK AO2 T02950250
KIER 191355Z AUTO 18003KT 10SM CLR 29/26 A2997 RMK AO2 T02850257
KIER 191335Z AUTO 17003KT 7SM CLR 27/25 A2996 RMK AO2 T02670251
KIER 191315Z AUTO 16003KT 7SM CLR 26/25 A2996 RMK AO2 T02630251
KIER 191255Z AUTO 00000KT 7SM CLR 26/25 A2996 RMK AO2 T02600250
KIER 191235Z AUTO 00000KT 7SM CLR 26/25 A2995 RMK AO2 T02570249
KIER 191215Z AUTO 00000KT 7SM CLR 25/25 A2994 RMK AO2 T02510245
KIER 191155Z AUTO 00000KT 7SM CLR 25/25 A2993 RMK AO2 T02500245 10257 20244
KIER 191135Z AUTO 00000KT 7SM CLR 25/25 A2992 RMK AO2 T02520245
KIER 191115Z AUTO 14003KT 7SM CLR 25/25 A2992 RMK AO2 T02530246
KIER 191055Z AUTO 00000KT 10SM CLR 26/25 A2991 RMK AO2 T02550246
KIER 191035Z AUTO 00000KT 7SM CLR 26/25 A2991 RMK AO2 T02550246
KIER 191015Z AUTO 00000KT 10SM CLR 26/25 A2991 RMK AO2 T02570246
KIER 190955Z AUTO 00000KT 10SM CLR 26/25 A2990 RMK AO2 T02560246
KIER 190935Z AUTO 00000KT 10SM CLR 26/25 A2990 RMK AO2 T02560247
KIER 190915Z AUTO 00000KT 7SM CLR 26/25 A2990 RMK AO2 T02550247
KIER 190855Z AUTO 00000KT 7SM CLR 25/25 A2990 RMK AO2 T02530246
KIER 190835Z AUTO 00000KT 7SM CLR 25/25 A2990 RMK AO2 T02520246
KIER 190815Z AUTO 00000KT 7SM CLR 25/25 A2990 RMK AO2 T02520245
KIER 190755Z AUTO 00000KT 7SM CLR 25/25 A2989 RMK AO2 T02490245
KIER 190735Z AUTO 00000KT 7SM CLR 24/24 A2989 RMK AO2 T02440241
KIER 190715Z AUTO 00000KT 7SM CLR 25/24 A2990 RMK AO2 T02470241
KIER 190655Z AUTO 15003KT 7SM CLR 25/25 A2990 RMK AO2 T02500245
KIER 190635Z AUTO 00000KT 7SM CLR 25/24 A2991 RMK AO2 T02500244
KIER 190615Z AUTO 00000KT 7SM CLR 25/25 A2991 RMK AO2 T02510245
KIER 190555Z AUTO 00000KT 7SM CLR 25/25 A2991 RMK AO2 T02500245 10295 20250 403100240
KIER 190535Z AUTO 00000KT 7SM CLR 25/25 A2991 RMK AO2 T02510246
KIER 190515Z AUTO 16003KT 7SM CLR 25/25 A2991 RMK AO2 T02520247
KIER 190455Z AUTO 00000KT 7SM CLR 25/25 A2992 RMK AO2 T02510246
KIER 190435Z AUTO 14003KT 7SM CLR 25/25 A2993 RMK AO2 T02520248
KIER 190415Z AUTO 00000KT 7SM CLR 25/25 A2993 RMK AO2 T02510248
KIER 190355Z AUTO 00000KT 7SM CLR 25/25 A2993 RMK AO2 T02540250
KIER 190335Z AUTO 00000KT 7SM CLR 26/25 A2993 RMK AO2 T02560251
KIER 190315Z AUTO 17003KT 10SM CLR 26/25 A2993 RMK AO2 T02600252
KIER 190255Z AUTO 00000KT 10SM CLR 27/25 A2993 RMK AO2 T02650253
KIER 190235Z AUTO 16003KT 10SM CLR 27/26 A2993 RMK AO2 T02660255
KIER 190215Z AUTO 00000KT 10SM CLR 27/26 A2992 RMK AO2 T02700255
KIER 190155Z AUTO 16004KT 10SM CLR 27/26 A2992 RMK AO2 T02720256
KIER 190135Z AUTO 19003KT 10SM CLR 28/26 A2992 RMK AO2 T02770256
KIER 190115Z AUTO 15003KT 10SM CLR 28/26 A2993 RMK AO2 T02800255
KIER 190055Z AUTO 16004KT 10SM CLR 28/25 A2993 RMK AO2 T02810251
KIER 190035Z AUTO 14005KT 10SM CLR 29/25 A2993 RMK AO2 T02870251
KIER 190015Z AUTO 14004KT 10SM CLR 29/26 A2993 RMK AO2 T02920255
KIER 182355Z AUTO 00000KT 10SM CLR 30/25 A2993 RMK AO2 T02950250 10305 20274
KIER 182335Z AUTO 00000KT 10SM CLR 30/24 A2993 RMK AO2 T03000243
KIER 182315Z AUTO 18003KT 10SM CLR 30/24 A2992 RMK AO2 T03010238
KIER 182255Z AUTO 00000KT 10SM CLR 31/24 A2992 RMK AO2 T03050237
KIER 182235Z AUTO 00000KT 10SM CLR 30/24 A2992 RMK AO2 T03000239
KIER 182215Z AUTO 00000KT 10SM CLR 30/24 A2993 RMK AO2 T02980238
KIER 182155Z AUTO 00000KT 10SM CLR 30/24 A2993 RMK AO2 T02950236
KIER 182135Z AUTO 00000KT 10SM CLR 30/24 A2994 RMK AO2 T02970235
KIER 182115Z AUTO 00000KT 10SM CLR 30/24 A2994 RMK AO2 T03020235
KIER 182055Z AUTO 20003KT 10SM CLR 30/24 A2996 RMK AO2 LTG DSNT SE T02990236
KIER 182035Z AUTO 00000KT 10SM SCT095 29/24 A2997 RMK AO2 T02880240
KIER 182015Z AUTO 00000KT 10SM SCT095 BKN110 29/24 A2998 RMK AO2 T02860237
KIER 181955Z AUTO 14005KT 7SM SCT110 29/24 A2998 RMK AO2 LTG DSNT SE T02910236
KIER 181935Z AUTO 13005KT 7SM SCT110 29/24 A2999 RMK AO2 T02900237
KIER 181915Z AUTO 18005KT 10SM SCT110 29/23 A3000 RMK AO2 LTG DSNT E T02860233
KIER 181855Z AUTO 15004KT 10SM SCT024 SCT033 BKN090 28/24 A3001 RMK AO2 T02800244
KIER 181835Z AUTO 13007KT 5SM RA SCT024 BKN048 OVC080 28/25 A3002 RMK AO2 T02770246
KIER 181815Z AUTO 11004KT 10SM SCT060 SCT070 OVC080 29/24 A3002 RMK AO2 T02900240
KIER 181755Z AUTO 09005KT 10SM OVC080 28/24 A3003 RMK AO2 T02840239 10310 20250
KIER 181735Z AUTO 08009G14KT 10SM OVC080 29/24 A3003 RMK AO2 T02920244
KIER 181715Z AUTO 00000KT 10SM BKN080 BKN110 31/23 A3002 RMK AO2 T03060234
KIER 181655Z AUTO 00000KT 10SM BKN080 31/24 A3001 RMK AO2 T03070236
KIER 181635Z AUTO 29003KT 10SM BKN080 31/23 A3002 RMK AO2 T03050233
KIER 181615Z AUTO 00000KT 10SM SCT080 30/24 A3001 RMK AO2 T03000237
KIER 181555Z AUTO 00000KT 10SM BKN090 29/23 A3001 RMK AO2 T02900234
KIER 181535Z AUTO 00000KT 10SM OVC080 29/23 A3001 RMK AO2 T02920234
KIER 181515Z AUTO 26006KT 10SM BKN090 30/23 A3001 RMK AO2 T02970231
KIER 181455Z AUTO 26004KT 10SM BKN090 30/23 A3001 RMK AO2 T02980232
KIER 181435Z AUTO 29005KT 10SM SCT090 30/23 A3001 RMK AO2 T02950233
KIER 181415Z AUTO 24003KT 10SM CLR 29/24 A3001 RMK AO2 T02910238
KIER 181355Z AUTO 27006KT 10SM SCT110 29/24 A3001 RMK AO2 T02880239
KIER 181335Z AUTO 25003KT 10SM BKN110 28/25 A3001 RMK AO2 LTG DSNT N T02820247
KIER 181315Z AUTO 00000KT 10SM BKN090 27/25 A3001 RMK AO2 T02730246
KIER 181255Z AUTO 00000KT 10SM SCT090 SCT120 27/25 A3001 RMK AO2 T02700247
KIER 181235Z AUTO 00000KT 7SM BKN120 26/25 A3001 RMK AO2 T02600246
KIER 181215Z AUTO 00000KT 7SM BKN120 25/25 A3001 RMK AO2 T02520245
KIER 181155Z AUTO 00000KT 7SM SCT110 25/24 A3001 RMK AO2 T02480242 10265 20240
KIER 181135Z AUTO 00000KT 7SM BKN100 OVC120 25/24 A3001 RMK AO2 T02470241
KIER 181115Z AUTO 00000KT 7SM SCT100 SCT120 24/24 A3000 RMK AO2 T02430240
KIER 181055Z AUTO 00000KT 7SM CLR 24/24 A2999 RMK AO2 T02400236
KIER 181035Z AUTO 00000KT 7SM CLR 24/24 A2998 RMK AO2 T02430236
KIER 181015Z AUTO 00000KT 7SM CLR 25/24 A2998 RMK AO2 T02450237
KIER 180955Z AUTO 13003KT 10SM CLR 25/24 A2998 RMK AO2 T02460237
KIER 180935Z AUTO 00000KT 10SM SCT110 25/24 A2998 RMK AO2 T02500237
KIER 180915Z AUTO 15003KT 10SM CLR 25/24 A2998 RMK AO2 T02500237